Time;durP1;ratioP1;P1;durP2;ratioP2;P2;SDS_P1;SDS_P2;PMS_P1;PMS_P2;Temp;Humidity;BMP_temperature;BMP_pressure;BME280_temperature;BME280_humidity;BME280_pressure;Samples;Min_cycle;Max_cycle;Signal;HPM_P1;HPM_P2
2022/10/01 10:47:50;;;;;;;;;;;17.00;71.80;;;;;;5064730;27;80194;-47
2022/10/01 10:50:36;;;;;;;;;;;17.00;75.80;;;;;;5064601;27;80250;-42
2022/10/01 10:53:21;;;;;;;;;;;17.00;75.70;;;;;;5064603;27;80365;-42
2022/10/01 10:56:12;;;;;;;;;;;17.20;76.10;;;;;;5064220;27;81329;-43
2022/10/01 10:58:39;;;;;;;;;;;17.30;78.60;;;;;;5063045;27;80147;-41
2022/10/01 11:01:11;;;;;;;;;;;17.50;77.80;;;;;;5064189;27;80795;-41
2022/10/01 11:03:40;;;;;;;;;;;17.60;76.90;;;;;;5063652;27;81522;-40
2022/10/01 11:06:10;;;;;;;;;;;17.70;77.00;;;;;;5063841;27;81378;-43
2022/10/01 11:08:35;;;;;;;;;;;17.70;76.80;;;;;;5066502;27;80480;-43
2022/10/01 11:11:04;;;;;;;;;;;17.80;76.50;;;;;;5064203;27;80269;-41
2022/10/01 11:13:31;;;;;;;;;;;17.80;76.20;;;;;;5063936;27;80971;-38
2022/10/01 11:16:15;;;;;;;;;;;17.90;75.40;;;;;;5064291;27;80929;-40
2022/10/01 11:18:50;;;;;;;;;;;18.00;75.50;;;;;;5064085;27;80354;-39
2022/10/01 11:21:34;;;;;;;;;;;18.00;75.90;;;;;;5063979;27;80672;-39
2022/10/01 11:24:23;;;;;;;;;;;18.10;76.60;;;;;;5063679;27;80628;-42
2022/10/01 11:26:48;;;;;;;;;;;18.10;76.00;;;;;;5057390;27;80372;-38
2022/10/01 11:29:22;;;;;;;;;;;18.20;76.50;;;;;;5063903;27;80218;-43
2022/10/01 11:31:49;;;;;;;;;;;18.20;76.40;;;;;;5066247;27;81423;-47
2022/10/01 11:34:17;;;;;;;;;;;18.30;76.20;;;;;;5063717;27;80709;-42
2022/10/01 11:36:56;;;;;;;;;;;18.30;76.90;;;;;;5063709;27;81027;-39
2022/10/01 11:39:23;;;;;;;;;;;18.40;76.80;;;;;;5063726;27;80323;-42
2022/10/01 11:41:53;;;;;;;;;;;18.40;76.90;;;;;;5063690;27;81276;-40
2022/10/01 11:44:23;;;;;;;;;;;18.40;76.60;;;;;;5063521;27;80735;-40
2022/10/01 11:46:57;;;;;;;;;;;18.40;75.60;;;;;;5062948;27;80327;-40
2022/10/01 11:49:32;;;;;;;;;;;18.40;76.80;;;;;;5063332;27;80306;-40
2022/10/01 11:52:06;;;;;;;;;;;18.40;76.30;;;;;;5063509;27;80219;-40
2022/10/01 11:54:33;;;;;;;;;;;18.40;75.90;;;;;;5066305;27;80262;-41
2022/10/01 11:59:48;;;;;;;;;;;18.40;76.00;;;;;;5049861;28;80227;-40
2022/10/01 12:02:33;;;;;;;;;;;18.40;76.30;;;;;;5049459;27;80515;-40
2022/10/01 12:04:58;;;;;;;;;;;18.40;76.20;;;;;;5049497;27;81250;-40
2022/10/01 12:07:35;;;;;;;;;;;18.40;76.30;;;;;;5049510;28;80513;-40
2022/10/01 12:10:03;;;;;;;;;;;18.40;76.40;;;;;;5049622;28;81693;-40
2022/10/01 12:12:39;;;;;;;;;;;18.40;76.30;;;;;;5049402;28;81049;-42
2022/10/01 12:15:04;;;;;;;;;;;18.50;76.70;;;;;;5049140;28;80346;-41
2022/10/01 12:17:39;;;;;;;;;;;18.50;76.50;;;;;;5051988;27;80112;-41
2022/10/01 12:20:11;;;;;;;;;;;18.50;76.40;;;;;;5049182;28;80184;-41
2022/10/01 12:22:37;;;;;;;;;;;18.60;76.20;;;;;;5049539;27;80598;-41
2022/10/01 12:25:03;;;;;;;;;;;18.60;77.00;;;;;;5048822;28;81222;-43
2022/10/01 12:27:37;;;;;;;;;;;18.70;76.40;;;;;;5049402;28;80347;-41
2022/10/01 12:30:08;;;;;;;;;;;18.70;76.70;;;;;;5049023;28;80702;-40
2022/10/01 12:32:44;;;;;;;;;;;18.70;76.50;;;;;;5049042;28;81294;-41
2022/10/01 12:35:10;;;;;;;;;;;18.60;76.30;;;;;;5049071;28;80223;-40
2022/10/01 12:37:43;;;;;;;;;;;18.60;76.50;;;;;;5048925;27;81120;-42
2022/10/01 12:40:09;;;;;;;;;;;18.60;76.50;;;;;;5051830;28;81130;-46
2022/10/01 12:42:34;;;;;;;;;;;18.70;77.00;;;;;;5048979;27;80478;-42
2022/10/01 12:45:19;;;;;;;;;;;18.70;77.60;;;;;;5048905;28;80265;-40
2022/10/01 12:50:56;;;;;;;;;;;18.70;77.10;;;;;;5049062;28;80297;-40
2022/10/01 12:53:24;;;;;;;;;;;18.70;77.00;;;;;;5048755;28;81385;-42
2022/10/01 12:55:50;;;;;;;;;;;18.70;76.80;;;;;;5048727;28;80192;-41
2022/10/01 12:58:38;;;;;;;;;;;18.70;75.70;;;;;;5048684;27;80884;-41
2022/10/01 13:01:17;;;;;;;;;;;18.70;76.50;;;;;;5042229;28;81007;-41
2022/10/01 13:03:43;;;;;;;;;;;18.70;76.60;;;;;;5051371;28;80492;-40
2022/10/01 13:06:08;;;;;;;;;;;18.70;76.30;;;;;;5048344;28;81335;-40
2022/10/01 13:08:34;;;;;;;;;;;18.80;76.00;;;;;;5048561;27;80748;-40
2022/10/01 13:11:19;;;;;;;;;;;18.80;76.10;;;;;;5047835;27;80142;-42
2022/10/01 13:13:48;;;;;;;;;;;18.80;75.90;;;;;;5046749;28;84751;-41
2022/10/01 13:16:26;;;;;;;;;;;18.90;75.70;;;;;;5048357;28;80558;-39
2022/10/01 13:19:02;;;;;;;;;;;18.90;75.50;;;;;;5048437;27;80646;-43
2022/10/01 13:21:31;;;;;;;;;;;18.90;75.50;;;;;;5048290;28;80342;-42
2022/10/01 13:24:11;;;;;;;;;;;18.90;75.90;;;;;;5050898;28;80358;-42
2022/10/01 13:26:37;;;;;;;;;;;18.90;76.90;;;;;;5048274;28;80566;-41
2022/10/01 13:29:21;;;;;;;;;;;18.90;77.70;;;;;;5048396;28;80358;-40
2022/10/01 13:31:50;;;;;;;;;;;18.90;77.60;;;;;;5048297;27;80645;-40
2022/10/01 13:34:44;;;;;;;;;;;19.00;78.20;;;;;;5047905;28;81326;-40
2022/10/01 13:37:09;;;;;;;;;;;18.90;77.70;;;;;;5046258;28;80335;-40
2022/10/01 13:39:35;;;;;;;;;;;19.00;77.90;;;;;;5048055;27;80652;-42
2022/10/01 13:42:03;;;;;;;;;;;18.90;77.60;;;;;;5048017;28;81268;-41
2022/10/01 13:44:32;;;;;;;;;;;19.00;77.80;;;;;;5047864;28;80383;-41
2022/10/01 13:47:04;;;;;;;;;;;19.00;78.00;;;;;;5050161;27;80564;-41
2022/10/01 13:49:31;;;;;;;;;;;18.90;77.30;;;;;;5047691;28;80290;-39
2022/10/01 13:51:57;;;;;;;;;;;19.00;77.00;;;;;;5048020;27;80280;-42
2022/10/01 13:54:32;;;;;;;;;;;19.10;76.90;;;;;;5047441;28;80353;-41
2022/10/01 13:57:27;;;;;;;;;;;19.10;76.60;;;;;;5047470;28;80336;-42
2022/10/01 14:00:01;;;;;;;;;;;19.10;76.50;;;;;;5038318;27;80879;-42
2022/10/01 14:02:31;;;;;;;;;;;19.00;76.80;;;;;;5047677;28;81052;-41
2022/10/01 14:05:04;;;;;;;;;;;19.10;76.50;;;;;;5047528;28;80340;-41
2022/10/01 14:07:34;;;;;;;;;;;19.00;76.60;;;;;;5047135;28;80266;-39
2022/10/01 14:10:00;;;;;;;;;;;19.00;77.00;;;;;;5050036;28;80318;-39
2022/10/01 14:17:56;;;;;;;;;;;19.20;76.20;;;;;;5047420;28;80342;-42
2022/10/01 14:20:23;;;;;;;;;;;19.20;76.30;;;;;;5047257;27;80983;-40
2022/10/01 14:23:07;;;;;;;;;;;19.20;76.20;;;;;;5047300;28;81326;-41
2022/10/01 14:25:42;;;;;;;;;;;19.20;76.20;;;;;;5047413;28;80687;-45
2022/10/01 14:28:07;;;;;;;;;;;19.30;76.40;;;;;;5047651;27;80799;-41
2022/10/01 14:30:54;;;;;;;;;;;19.30;75.90;;;;;;5046998;28;80255;-39
2022/10/01 14:33:39;;;;;;;;;;;19.30;75.50;;;;;;5050282;28;80224;-42
2022/10/01 14:36:07;;;;;;;;;;;19.30;75.50;;;;;;5047345;28;81320;-39
2022/10/01 14:38:33;;;;;;;;;;;19.30;75.70;;;;;;5047335;28;80322;-40
2022/10/01 14:40:58;;;;;;;;;;;19.30;76.00;;;;;;5047093;28;80623;-41
2022/10/01 14:43:25;;;;;;;;;;;19.30;75.80;;;;;;5047202;28;81037;-41
2022/10/01 14:45:52;;;;;;;;;;;19.40;75.90;;;;;;5046425;28;80360;-41
2022/10/01 14:48:18;;;;;;;;;;;19.30;75.60;;;;;;5046977;27;80659;-45
2022/10/01 14:50:46;;;;;;;;;;;19.30;75.90;;;;;;5047104;28;81492;-42
2022/10/01 14:53:15;;;;;;;;;;;19.40;76.20;;;;;;5046882;28;80446;-44
2022/10/01 14:55:41;;;;;;;;;;;19.40;76.50;;;;;;5049344;27;80705;-44
2022/10/01 14:58:16;;;;;;;;;;;19.40;76.30;;;;;;5047148;28;80716;-41
2022/10/01 15:00:47;;;;;;;;;;;19.40;76.30;;;;;;5047106;27;81171;-40
2022/10/01 15:03:16;;;;;;;;;;;19.40;76.10;;;;;;5045642;28;83019;-44
2022/10/01 15:05:42;;;;;;;;;;;19.40;76.50;;;;;;5045609;28;81278;-42
2022/10/01 15:08:13;;;;;;;;;;;19.40;76.50;;;;;;5045806;27;81965;-41
2022/10/01 15:10:39;;;;;;;;;;;;;;;;;;5045660;28;83111;-40
2022/10/01 15:13:05;;;;;;;;;;;;;;;;;;5044598;28;83035;-42
2022/10/01 15:15:31;;;;;;;;;;;;;;;;;;5048630;27;82087;-42
2022/10/01 15:17:57;;;;;;;;;;;;;;;;;;5045859;27;82087;-41
2022/10/01 15:20:23;;;;;;;;;;;;;;;;;;5045761;27;81908;-50
2022/10/01 15:22:49;;;;;;;;;;;;;;;;;;5045571;27;83221;-42
2022/10/01 15:25:15;;;;;;;;;;;;;;;;;;5045553;28;82021;-42
2022/10/01 15:27:41;;;;;;;;;;;;;;;;;;5045866;27;82270;-40
2022/10/01 15:30:06;;;;;;;;;;;;;;;;;;5045252;27;82821;-41
2022/10/01 15:32:32;;;;;;;;;;;;;;;;;;5046003;27;82153;-43
2022/10/01 15:34:58;;;;;;;;;;;;;;;;;;5049443;27;83128;-45
2022/10/01 15:37:24;;;;;;;;;;;;;;;;;;5050615;27;83829;-41
2022/10/01 15:39:50;;;;;;;;;;;;;;;;;;5048994;27;82947;-41
2022/10/01 15:42:16;;;;;;;;;;;;;;;;;;5048817;27;82834;-41
2022/10/01 15:44:44;;;;;;;;;;;;;;;;;;5049144;27;82097;-46
2022/10/01 15:47:10;;;;;;;;;;;;;;;;;;5048509;28;81959;-43
2022/10/01 15:54:03;;;;;;;;;;;19.50;76.40;;;;;;5064791;27;80121;-41
2022/10/01 15:56:28;;;;;;;;;;;19.40;77.40;;;;;;5063556;27;80158;-42
2022/10/01 15:58:57;;;;;;;;;;;19.40;76.90;;;;;;5063835;27;80169;-41
2022/10/01 16:01:24;;;;;;;;;;;19.40;77.10;;;;;;5061402;27;81161;-40
2022/10/01 16:03:51;;;;;;;;;;;19.40;76.80;;;;;;5063582;27;80293;-44
2022/10/01 16:06:18;;;;;;;;;;;19.40;76.70;;;;;;5063336;27;80611;-43
2022/10/01 16:08:58;;;;;;;;;;;19.40;76.50;;;;;;5063371;27;81297;-42
2022/10/01 16:11:30;;;;;;;;;;;19.40;77.10;;;;;;5061865;27;80188;-41
2022/10/01 16:14:14;;;;;;;;;;;19.40;77.20;;;;;;5064711;27;80794;-41
2022/10/01 16:16:40;;;;;;;;;;;19.40;77.00;;;;;;5061932;27;80174;-41
2022/10/01 16:19:19;;;;;;;;;;;19.40;76.30;;;;;;5063346;27;80880;-41
2022/10/01 16:22:05;;;;;;;;;;;19.50;76.40;;;;;;5062369;27;81083;-40
2022/10/01 16:24:39;;;;;;;;;;;19.50;76.40;;;;;;5062139;27;80325;-41
2022/10/01 16:27:09;;;;;;;;;;;19.50;76.40;;;;;;5063139;27;80271;-41
2022/10/01 16:29:34;;;;;;;;;;;19.40;76.80;;;;;;5062777;27;81456;-41
2022/10/01 16:32:01;;;;;;;;;;;19.30;76.90;;;;;;5062706;27;80184;-40
2022/10/01 16:34:26;;;;;;;;;;;19.30;77.40;;;;;;5062781;27;80596;-41
2022/10/01 16:36:52;;;;;;;;;;;19.20;77.70;;;;;;5065684;27;81211;-40
2022/10/01 16:39:18;;;;;;;;;;;19.20;77.70;;;;;;5062951;27;80613;-40
2022/10/01 16:41:45;;;;;;;;;;;19.20;78.00;;;;;;5062678;27;81119;-44
2022/10/01 16:44:12;;;;;;;;;;;19.10;78.40;;;;;;5062824;27;80281;-43
2022/10/01 16:46:38;;;;;;;;;;;19.20;78.30;;;;;;5062772;27;81342;-41
2022/10/01 16:49:14;;;;;;;;;;;19.10;78.40;;;;;;5062771;27;80411;-43
2022/10/01 16:51:39;;;;;;;;;;;19.20;78.50;;;;;;5060682;27;80336;-41
2022/10/01 16:54:13;;;;;;;;;;;19.20;78.70;;;;;;5060722;27;81251;-39
2022/10/01 16:56:40;;;;;;;;;;;19.10;78.50;;;;;;5061121;27;81415;-41
2022/10/01 16:59:05;;;;;;;;;;;19.10;78.60;;;;;;5063136;27;80990;-44
2022/10/01 17:01:31;;;;;;;;;;;19.10;78.40;;;;;;5062554;27;81897;-41
2022/10/01 17:03:56;;;;;;;;;;;19.10;78.40;;;;;;5056999;27;80205;-40
2022/10/01 17:06:22;;;;;;;;;;;19.10;79.10;;;;;;5048803;28;80732;-40
2022/10/01 17:08:47;;;;;;;;;;;19.10;78.40;;;;;;5049043;27;81500;-40
2022/10/01 17:11:13;;;;;;;;;;;19.20;78.30;;;;;;5049044;28;80411;-41
2022/10/01 17:13:39;;;;;;;;;;;19.20;78.00;;;;;;5048543;27;80699;-40
2022/10/01 17:16:05;;;;;;;;;;;19.30;77.70;;;;;;5048794;28;81087;-38
2022/10/01 17:18:30;;;;;;;;;;;19.30;77.60;;;;;;5048733;28;81238;-39
2022/10/01 17:20:58;;;;;;;;;;;19.30;77.90;;;;;;5051375;28;80732;-40
2022/10/01 17:23:24;;;;;;;;;;;19.40;77.40;;;;;;5048514;28;80351;-40
2022/10/01 17:25:49;;;;;;;;;;;19.20;78.40;;;;;;5048987;28;80154;-39
2022/10/01 17:28:16;;;;;;;;;;;19.20;78.10;;;;;;5048580;28;81638;-42
2022/10/01 17:30:42;;;;;;;;;;;19.40;78.10;;;;;;5048512;28;80358;-42
2022/10/01 17:33:09;;;;;;;;;;;19.40;78.00;;;;;;5048527;28;80179;-41
2022/10/01 17:35:38;;;;;;;;;;;19.50;77.90;;;;;;5048324;27;81257;-40
2022/10/01 17:38:04;;;;;;;;;;;19.40;78.00;;;;;;5048259;28;80412;-43
2022/10/01 17:40:29;;;;;;;;;;;19.40;78.00;;;;;;5048504;28;80650;-39
2022/10/01 17:42:55;;;;;;;;;;;19.50;78.00;;;;;;5050851;28;81310;-41
2022/10/01 17:45:20;;;;;;;;;;;19.50;77.40;;;;;;5048629;28;80864;-41
2022/10/01 17:47:47;;;;;;;;;;;19.50;77.60;;;;;;5048271;28;80568;-41
2022/10/01 17:50:13;;;;;;;;;;;19.50;77.20;;;;;;5048147;28;80333;-41
2022/10/01 17:52:38;;;;;;;;;;;19.50;77.70;;;;;;5047751;28;80712;-40
2022/10/01 17:55:04;;;;;;;;;;;19.50;77.50;;;;;;5047923;27;81203;-43
2022/10/01 17:57:30;;;;;;;;;;;19.40;77.90;;;;;;5048079;28;80308;-41
2022/10/01 17:59:55;;;;;;;;;;;19.40;78.10;;;;;;5048140;28;80613;-40
2022/10/01 18:02:21;;;;;;;;;;;19.40;77.60;;;;;;5047940;28;80475;-44
2022/10/01 18:04:46;;;;;;;;;;;19.40;77.70;;;;;;5050526;28;79999;-43
2022/10/01 18:07:12;;;;;;;;;;;19.40;77.70;;;;;;5047789;28;81549;-44
2022/10/01 18:09:41;;;;;;;;;;;19.50;77.30;;;;;;5047860;28;80346;-42
2022/10/01 18:12:07;;;;;;;;;;;19.50;77.10;;;;;;5045694;28;80697;-40
2022/10/01 18:14:32;;;;;;;;;;;19.60;77.00;;;;;;5047729;28;81265;-41
2022/10/01 18:16:58;;;;;;;;;;;19.60;76.70;;;;;;5046962;27;80393;-40
2022/10/01 18:19:23;;;;;;;;;;;19.60;76.70;;;;;;5048001;28;81079;-39
2022/10/01 18:21:49;;;;;;;;;;;19.70;76.60;;;;;;5047776;28;80547;-41
2022/10/01 18:24:15;;;;;;;;;;;19.70;76.40;;;;;;5050443;27;80392;-40
2022/10/01 18:26:41;;;;;;;;;;;19.70;76.70;;;;;;5047664;27;80526;-43
2022/10/01 18:29:06;;;;;;;;;;;19.70;76.40;;;;;;5047432;28;80398;-42
2022/10/01 18:31:35;;;;;;;;;;;19.70;76.70;;;;;;5047711;28;80872;-40
2022/10/01 18:34:02;;;;;;;;;;;19.60;76.80;;;;;;5047278;28;81446;-39
2022/10/01 18:36:33;;;;;;;;;;;19.50;77.00;;;;;;5047549;28;80271;-41
2022/10/01 18:39:14;;;;;;;;;;;19.40;77.30;;;;;;5047617;28;80353;-41
2022/10/01 18:41:40;;;;;;;;;;;19.50;77.40;;;;;;5045891;28;80463;-46
2022/10/01 18:44:10;;;;;;;;;;;19.50;77.40;;;;;;5047402;28;80447;-41
2022/10/01 18:46:37;;;;;;;;;;;;;;;;;;5047921;28;80926;-42
2022/10/01 18:49:03;;;;;;;;;;;;;;;;;;5047389;28;80224;-42
2022/10/01 18:51:29;;;;;;;;;;;;;;;;;;5047549;28;80525;-41
2022/10/01 18:53:55;;;;;;;;;;;;;;;;;;5047100;28;80488;-42
2022/10/01 18:56:21;;;;;;;;;;;;;;;;;;5047748;28;80324;-41
2022/10/01 18:58:47;;;;;;;;;;;;;;;;;;5047354;27;80556;-41
2022/10/01 19:01:13;;;;;;;;;;;;;;;;;;5047028;27;81359;-42
2022/10/01 19:03:38;;;;;;;;;;;;;;;;;;5047412;27;80489;-41
2022/10/01 19:06:04;;;;;;;;;;;;;;;;;;5047043;27;80872;-41
2022/10/01 19:08:31;;;;;;;;;;;;;;;;;;5049866;28;81360;-39
2022/10/01 19:10:57;;;;;;;;;;;;;;;;;;5047141;28;80262;-40
2022/10/01 19:13:23;;;;;;;;;;;;;;;;;;5047146;28;81033;-43
2022/10/01 19:15:48;;;;;;;;;;;;;;;;;;5047025;27;80306;-43
2022/10/01 19:18:14;;;;;;;;;;;;;;;;;;5047187;27;80476;-42
2022/10/01 19:20:40;;;;;;;;;;;;;;;;;;5047016;28;80397;-41
2022/10/01 19:23:06;;;;;;;;;;;;;;;;;;5046914;27;80455;-42
2022/10/01 19:25:32;;;;;;;;;;;;;;;;;;5046901;27;80307;-41
2022/10/01 19:27:58;;;;;;;;;;;;;;;;;;5046744;28;81209;-41
2022/10/01 19:30:24;;;;;;;;;;;;;;;;;;5049724;28;80461;-39
2022/10/01 19:32:50;;;;;;;;;;;;;;;;;;5046558;27;81211;-41
2022/10/01 19:35:16;;;;;;;;;;;;;;;;;;5046651;27;80350;-40
2022/10/01 19:37:42;;;;;;;;;;;;;;;;;;5046863;27;80308;-40
2022/10/01 19:40:08;;;;;;;;;;;;;;;;;;5046482;28;81082;-38
2022/10/01 19:42:34;;;;;;;;;;;;;;;;;;5046601;28;80406;-39
2022/10/01 19:45:00;;;;;;;;;;;;;;;;;;5046694;27;80318;-41
2022/10/01 19:51:07;;;;;;;;;;;19.40;79.00;;;;;;5064195;27;80468;-41
2022/10/01 19:53:33;;;;;;;;;;;19.30;79.20;;;;;;5063571;27;80554;-43
2022/10/01 19:56:00;;;;;;;;;;;19.30;78.80;;;;;;5064409;27;80854;-41
2022/10/01 19:58:26;;;;;;;;;;;19.30;79.40;;;;;;5064164;27;81160;-41
2022/10/01 20:00:56;;;;;;;;;;;19.30;78.60;;;;;;5063959;27;80173;-40
2022/10/01 20:03:35;;;;;;;;;;;19.40;78.60;;;;;;5063469;27;80828;-40
2022/10/01 20:06:04;;;;;;;;;;;19.30;78.60;;;;;;5063748;27;81000;-40
2022/10/01 20:08:35;;;;;;;;;;;19.30;77.80;;;;;;5064315;27;80290;-40
2022/10/01 20:11:23;;;;;;;;;;;19.30;79.10;;;;;;5066672;27;80293;-39
2022/10/01 20:14:00;;;;;;;;;;;19.30;78.50;;;;;;5063775;27;81395;-39
2022/10/01 20:16:34;;;;;;;;;;;19.20;78.30;;;;;;5064188;27;80609;-39
2022/10/01 20:19:22;;;;;;;;;;;19.20;78.10;;;;;;5063957;27;80390;-39
2022/10/01 20:22:06;;;;;;;;;;;19.20;78.00;;;;;;5063343;27;80379;-39
2022/10/01 20:24:31;;;;;;;;;;;19.20;77.80;;;;;;5063752;27;80808;-39
2022/10/01 20:27:06;;;;;;;;;;;19.20;78.50;;;;;;5063900;27;81321;-39
2022/10/01 20:29:38;;;;;;;;;;;19.20;77.70;;;;;;5063645;27;80197;-39
2022/10/01 20:32:24;;;;;;;;;;;19.10;77.70;;;;;;5063842;27;80692;-39
2022/10/01 20:34:51;;;;;;;;;;;19.20;77.70;;;;;;5066345;27;81044;-39
2022/10/01 20:37:24;;;;;;;;;;;19.10;77.60;;;;;;5063642;27;80808;-39
2022/10/01 20:39:53;;;;;;;;;;;19.10;77.60;;;;;;5063544;27;81379;-39
2022/10/01 20:42:22;;;;;;;;;;;19.20;77.60;;;;;;5063525;27;80237;-39
2022/10/01 20:44:50;;;;;;;;;;;19.10;77.30;;;;;;5063209;27;80709;-39
2022/10/01 20:47:19;;;;;;;;;;;19.10;77.40;;;;;;5063437;27;81056;-39
2022/10/01 20:49:49;;;;;;;;;;;19.10;77.30;;;;;;5062636;27;80331;-39
2022/10/01 20:52:17;;;;;;;;;;;19.00;77.30;;;;;;5063284;27;80315;-39
2022/10/01 20:54:46;;;;;;;;;;;19.10;77.10;;;;;;5063606;27;81321;-39
2022/10/01 20:57:16;;;;;;;;;;;19.00;77.10;;;;;;5065900;27;80396;-39
2022/10/01 20:59:43;;;;;;;;;;;19.00;77.20;;;;;;5062858;27;82740;-39
2022/10/01 21:02:18;;;;;;;;;;;19.00;77.20;;;;;;5050818;27;80318;-39
2022/10/01 21:04:48;;;;;;;;;;;19.00;77.00;;;;;;5049694;27;80752;-39
2022/10/01 21:07:35;;;;;;;;;;;19.00;77.10;;;;;;5049078;28;81496;-39
2022/10/01 21:10:03;;;;;;;;;;;19.00;77.10;;;;;;5049641;28;80129;-39
2022/10/01 21:12:40;;;;;;;;;;;19.00;77.00;;;;;;5049482;28;81017;-39
2022/10/01 21:15:10;;;;;;;;;;;19.00;77.00;;;;;;5049651;28;81235;-39
2022/10/01 21:17:35;;;;;;;;;;;19.00;77.00;;;;;;5049131;28;80138;-39
2022/10/01 21:20:10;;;;;;;;;;;19.00;77.10;;;;;;5052172;27;80642;-40
2022/10/01 21:22:54;;;;;;;;;;;19.00;77.10;;;;;;5049401;28;80136;-39
2022/10/01 21:25:23;;;;;;;;;;;18.90;77.00;;;;;;5049436;27;80574;-39
2022/10/01 21:28:08;;;;;;;;;;;18.90;76.90;;;;;;5049202;28;81338;-39
2022/10/01 21:30:51;;;;;;;;;;;18.90;76.90;;;;;;5049105;28;80121;-41
2022/10/01 21:33:22;;;;;;;;;;;18.90;76.80;;;;;;5049378;27;80185;-41
2022/10/01 21:36:06;;;;;;;;;;;18.90;76.70;;;;;;5049069;28;81409;-39
2022/10/01 21:38:34;;;;;;;;;;;18.90;76.70;;;;;;5049217;28;80319;-41
2022/10/01 21:41:13;;;;;;;;;;;18.90;76.60;;;;;;5049196;27;80680;-41
2022/10/01 21:43:47;;;;;;;;;;;18.90;76.60;;;;;;5051515;28;81335;-41
2022/10/01 21:46:15;;;;;;;;;;;18.90;76.60;;;;;;5048903;27;80655;-42
2022/10/01 21:48:44;;;;;;;;;;;18.90;76.50;;;;;;5048089;28;81100;-41
2022/10/01 21:51:41;;;;;;;;;;;18.90;76.50;;;;;;5049155;28;80252;-41
2022/10/01 21:54:22;;;;;;;;;;;18.90;76.50;;;;;;5025147;27;80875;-41
2022/10/01 21:57:09;;;;;;;;;;;18.90;76.60;;;;;;5048663;28;81326;-41
2022/10/01 21:59:40;;;;;;;;;;;18.90;76.50;;;;;;5026856;28;80297;-41
2022/10/01 22:02:18;;;;;;;;;;;18.80;76.40;;;;;;5048771;27;80752;-41
2022/10/01 22:04:52;;;;;;;;;;;18.80;76.40;;;;;;5048637;28;81079;-41
2022/10/01 22:07:17;;;;;;;;;;;18.80;76.40;;;;;;5051195;28;80254;-41
2022/10/01 22:09:48;;;;;;;;;;;18.90;76.50;;;;;;5048403;28;81400;-41
2022/10/01 22:12:14;;;;;;;;;;;18.80;76.40;;;;;;5048046;27;80120;-41
2022/10/01 22:14:40;;;;;;;;;;;18.80;76.40;;;;;;5048060;27;80676;-41
2022/10/01 22:17:18;;;;;;;;;;;18.80;76.30;;;;;;5048349;28;81295;-40
2022/10/01 22:19:47;;;;;;;;;;;18.80;76.30;;;;;;5048205;28;80330;-41
2022/10/01 22:22:19;;;;;;;;;;;18.80;76.30;;;;;;5048409;27;80840;-41
2022/10/01 22:24:46;;;;;;;;;;;18.80;76.30;;;;;;5047899;28;81230;-41
2022/10/01 22:27:31;;;;;;;;;;;18.80;76.30;;;;;;5050872;28;80310;-41
2022/10/01 22:29:58;;;;;;;;;;;18.80;76.40;;;;;;5047880;28;81263;-41
2022/10/01 22:32:27;;;;;;;;;;;18.80;76.30;;;;;;5048082;28;80204;-40
2022/10/01 22:35:08;;;;;;;;;;;18.80;76.20;;;;;;5047928;27;80713;-41
2022/10/01 22:37:40;;;;;;;;;;;18.80;76.20;;;;;;5048255;28;81085;-41
2022/10/01 22:40:10;;;;;;;;;;;18.80;76.10;;;;;;5048167;28;80217;-41
2022/10/01 22:42:38;;;;;;;;;;;18.70;76.10;;;;;;5048202;28;80302;-41
2022/10/01 22:45:12;;;;;;;;;;;18.70;76.20;;;;;;5047843;28;81413;-41
2022/10/01 22:48:00;;;;;;;;;;;18.70;76.20;;;;;;5048064;28;80303;-41
2022/10/01 22:50:33;;;;;;;;;;;18.70;76.10;;;;;;5049648;27;80530;-41
2022/10/01 22:53:07;;;;;;;;;;;18.70;76.10;;;;;;5048283;28;80169;-41
2022/10/01 22:55:33;;;;;;;;;;;18.70;76.00;;;;;;5048170;28;80772;-41
2022/10/01 22:58:11;;;;;;;;;;;18.70;76.00;;;;;;5047710;28;81223;-40
2022/10/01 23:01:09;;;;;;;;;;;18.70;76.00;;;;;;5048054;28;80208;-41
2022/10/01 23:03:58;;;;;;;;;;;18.70;76.00;;;;;;5023892;27;80683;-41
2022/10/01 23:06:31;;;;;;;;;;;18.70;76.00;;;;;;5041693;28;81240;-41
2022/10/01 23:09:18;;;;;;;;;;;18.70;76.10;;;;;;5047562;28;80312;-41
2022/10/01 23:11:51;;;;;;;;;;;18.70;76.00;;;;;;5047296;28;80291;-41
2022/10/01 23:14:17;;;;;;;;;;;18.70;76.00;;;;;;5050614;28;81436;-41
2022/10/01 23:16:53;;;;;;;;;;;18.60;75.90;;;;;;5047858;28;80800;-41
2022/10/01 23:19:19;;;;;;;;;;;18.70;76.00;;;;;;5047555;28;81370;-41
2022/10/01 23:21:53;;;;;;;;;;;18.60;75.90;;;;;;5047371;28;80347;-41
2022/10/01 23:24:18;;;;;;;;;;;18.60;76.00;;;;;;5047379;27;80585;-41
2022/10/01 23:27:03;;;;;;;;;;;18.60;75.90;;;;;;5047411;28;81180;-41
2022/10/01 23:29:31;;;;;;;;;;;18.60;75.90;;;;;;5047417;27;80374;-41
2022/10/01 23:31:59;;;;;;;;;;;18.60;75.90;;;;;;5047576;27;80760;-41
2022/10/01 23:34:51;;;;;;;;;;;18.60;75.90;;;;;;5047299;28;80388;-41
2022/10/01 23:37:20;;;;;;;;;;;18.60;75.90;;;;;;5032638;28;80368;-41
2022/10/01 23:39:49;;;;;;;;;;;18.60;75.80;;;;;;5047295;28;81281;-41
2022/10/01 23:42:30;;;;;;;;;;;18.60;75.90;;;;;;5047250;28;80307;-41
2022/10/01 23:45:11;;;;;;;;;;;18.60;75.80;;;;;;5047202;27;80214;-41
2022/10/01 23:47:38;;;;;;;;;;;18.60;75.80;;;;;;5047253;28;81237;-41
2022/10/01 23:50:06;;;;;;;;;;;18.60;75.80;;;;;;5046763;28;80359;-40
2022/10/01 23:52:41;;;;;;;;;;;18.60;75.80;;;;;;5047158;28;80910;-41
2022/10/01 23:58:03;;;;;;;;;;;18.60;75.80;;;;;;5047119;28;80224;-41
